AIQ359 VTBD-WSSS
Flight info
| Callsign | AIQ359 |
|---|---|
| Flight time | N/A |
| Altitude | 39000 |
| Route | VTBD/21R KIGOB Y11 PASVA Y514 NUFFA DCT PIBAP DCT PASPU DCT NYLON |
| Aircraft | A20N/M-SDE2E3FGHIRWXY/LB1 |
Departure
| Time | N/A |
|---|---|
| Airport | Don Mueang International Airport (VTBD) |
Arrival
| Time | 2026-05-04 11:33 |
|---|---|
| Airport | Singapore Changi Airport (WSSS) |
| Time | Latitude | Longitude | Altitude | Speed | Heading |
|---|---|---|---|---|---|
| 2026-05-04 10:49 | 5.43135 | 102.36942 | 38853 ft | 475 kts | 158° |
| 2026-05-04 10:50 | 5.36992 | 102.39393 | 38845 ft | 475 kts | 158° |
| 2026-05-04 10:52 | 5.12431 | 102.49199 | 38847 ft | 478 kts | 158° |
| 2026-05-04 10:52 | 5.06264 | 102.51660 | 38849 ft | 476 kts | 158° |
| 2026-05-04 10:54 | 4.81746 | 102.61438 | 38847 ft | 474 kts | 158° |
| 2026-05-04 10:56 | 4.57361 | 102.71157 | 38847 ft | 472 kts | 158° |
| 2026-05-04 10:57 | 4.51261 | 102.73587 | 38847 ft | 472 kts | 158° |
| 2026-05-04 10:57 | 4.45198 | 102.76001 | 38839 ft | 472 kts | 157° |
| 2026-05-04 10:58 | 4.39104 | 102.78428 | 38842 ft | 471 kts | 158° |
| 2026-05-04 10:58 | 4.33021 | 102.80850 | 38843 ft | 470 kts | 158° |
| 2026-05-04 10:59 | 4.26937 | 102.83272 | 38836 ft | 471 kts | 158° |
| 2026-05-04 10:59 | 4.20889 | 102.85679 | 38837 ft | 471 kts | 158° |
| 2026-05-04 11:00 | 4.14799 | 102.88103 | 38825 ft | 471 kts | 158° |
| 2026-05-04 11:02 | 3.90475 | 102.97778 | 38817 ft | 471 kts | 158° |
| 2026-05-04 11:05 | 3.45015 | 103.15844 | 38816 ft | 467 kts | 158° |
| 2026-05-04 11:06 | 3.39023 | 103.18225 | 38821 ft | 466 kts | 157° |
| 2026-05-04 11:06 | 3.32996 | 103.20634 | 38818 ft | 466 kts | 154° |
| 2026-05-04 11:08 | 3.16365 | 103.35605 | 38835 ft | 464 kts | 132° |
| 2026-05-04 11:10 | 3.00903 | 103.52057 | 38838 ft | 463 kts | 132° |
| 2026-05-04 11:12 | 2.85621 | 103.68616 | 33028 ft | 473 kts | 129° |
| 2026-05-04 11:12 | 2.83519 | 103.71147 | 31943 ft | 474 kts | 129° |
| 2026-05-04 11:12 | 2.81419 | 103.73694 | 30881 ft | 474 kts | 129° |
| 2026-05-04 11:12 | 2.79347 | 103.76204 | 29817 ft | 475 kts | 130° |
| 2026-05-04 11:13 | 2.77239 | 103.78745 | 28467 ft | 476 kts | 130° |
| 2026-05-04 11:13 | 2.75107 | 103.81305 | 27043 ft | 481 kts | 130° |
| 2026-05-04 11:13 | 2.72952 | 103.83881 | 26351 ft | 485 kts | 130° |
| 2026-05-04 11:13 | 2.70779 | 103.86474 | 25788 ft | 487 kts | 130° |
| 2026-05-04 11:14 | 2.68596 | 103.89077 | 25173 ft | 489 kts | 129° |
| 2026-05-04 11:14 | 2.66403 | 103.91691 | 24545 ft | 491 kts | 129° |
| 2026-05-04 11:14 | 2.64205 | 103.94311 | 23916 ft | 493 kts | 129° |
| 2026-05-04 11:16 | 2.49043 | 104.10465 | 18516 ft | 414 kts | 152° |
| 2026-05-04 11:16 | 2.46370 | 104.11441 | 17875 ft | 405 kts | 166° |
| 2026-05-04 11:16 | 2.43633 | 104.11781 | 17572 ft | 387 kts | 174° |
| 2026-05-04 11:17 | 2.41044 | 104.11861 | 17334 ft | 368 kts | 178° |
| 2026-05-04 11:17 | 2.38548 | 104.11809 | 17095 ft | 351 kts | 180° |
| 2026-05-04 11:19 | 2.21946 | 104.11158 | 15421 ft | 336 kts | 180° |
| 2026-05-04 11:19 | 2.19649 | 104.11093 | 15150 ft | 325 kts | 180° |
| 2026-05-04 11:19 | 2.17414 | 104.11029 | 14746 ft | 318 kts | 180° |
| 2026-05-04 11:19 | 2.15213 | 104.10967 | 14315 ft | 314 kts | 180° |
| 2026-05-04 11:20 | 2.13045 | 104.10906 | 13897 ft | 310 kts | 180° |
| 2026-05-04 11:20 | 2.10905 | 104.10846 | 13473 ft | 306 kts | 180° |
| 2026-05-04 11:20 | 2.08791 | 104.10786 | 13045 ft | 302 kts | 180° |
| 2026-05-04 11:20 | 2.06694 | 104.10726 | 12642 ft | 301 kts | 180° |
| 2026-05-04 11:22 | 1.92201 | 104.10509 | 10137 ft | 295 kts | 179° |
| 2026-05-04 11:22 | 1.90136 | 104.10526 | 9713 ft | 298 kts | 179° |
| 2026-05-04 11:23 | 1.88064 | 104.10541 | 9287 ft | 297 kts | 179° |
| 2026-05-04 11:23 | 1.86033 | 104.10555 | 8902 ft | 295 kts | 179° |
| 2026-05-04 11:24 | 1.73912 | 104.10611 | 6608 ft | 286 kts | 179° |
| 2026-05-04 11:25 | 1.71925 | 104.10620 | 6228 ft | 285 kts | 179° |
| 2026-05-04 11:25 | 1.69969 | 104.10629 | 5837 ft | 284 kts | 180° |
| 2026-05-04 11:25 | 1.68004 | 104.10638 | 5461 ft | 282 kts | 180° |
| 2026-05-04 11:26 | 1.64116 | 104.10656 | 4719 ft | 277 kts | 180° |
| 2026-05-04 11:27 | 1.53879 | 104.05779 | 3267 ft | 190 kts | 203° |
| 2026-05-04 11:28 | 1.52729 | 104.05309 | 3202 ft | 166 kts | 203° |
| 2026-05-04 11:28 | 1.51701 | 104.04873 | 2940 ft | 156 kts | 204° |
| 2026-05-04 11:28 | 1.50734 | 104.04459 | 2701 ft | 149 kts | 204° |
| 2026-05-04 11:28 | 1.49787 | 104.04056 | 2508 ft | 148 kts | 203° |
| 2026-05-04 11:29 | 1.48841 | 104.03654 | 2322 ft | 148 kts | 203° |
| 2026-05-04 11:29 | 1.47896 | 104.03253 | 2128 ft | 147 kts | 203° |
| 2026-05-04 11:29 | 1.46967 | 104.02859 | 1937 ft | 146 kts | 202° |
| 2026-05-04 11:29 | 1.46031 | 104.02462 | 1752 ft | 146 kts | 202° |
| 2026-05-04 11:31 | 1.39545 | 103.99709 | 464 ft | 144 kts | 203° |
| 2026-05-04 11:33 | 1.35934 | 103.98367 | 29 ft | 10 kts | 57° |
| 2026-05-04 11:33 | 1.36004 | 103.98407 | 29 ft | 12 kts | 24° |
| 2026-05-04 11:33 | 1.36080 | 103.98441 | 30 ft | 12 kts | 24° |
| 2026-05-04 11:34 | 1.36109 | 103.98501 | 29 ft | 11 kts | 103° |
| 2026-05-04 11:34 | 1.36076 | 103.98569 | 28 ft | 11 kts | 131° |
| 2026-05-04 11:34 | 1.36008 | 103.98603 | 28 ft | 11 kts | 159° |
| 2026-05-04 11:34 | 1.35936 | 103.98630 | 28 ft | 11 kts | 157° |
| 2026-05-04 11:35 | 1.35906 | 103.98642 | 28 ft | 0 kts | 161° |